createdAt,value
2022-08-09T00:00:47.884Z,87.10
2022-08-09T00:06:17.602Z,88.10
2022-08-09T00:11:24.697Z,90.20
2022-08-09T00:16:38.325Z,90.40
2022-08-09T00:21:55.619Z,90.50
2022-08-09T00:27:04.179Z,91.30
2022-08-09T00:32:27.004Z,91.80
2022-08-09T00:37:39.130Z,91.80
2022-08-09T00:44:11.923Z,92.00
2022-08-09T00:48:15.342Z,92.10
2022-08-09T00:53:24.346Z,92.10
2022-08-09T00:58:31.669Z,92.30
2022-08-09T01:03:50.313Z,92.20
2022-08-09T01:09:06.204Z,92.30
2022-08-09T01:14:19.039Z,91.80
2022-08-09T01:19:43.226Z,91.50
2022-08-09T01:25:01.235Z,91.50
2022-08-09T01:30:33.673Z,91.50
2022-08-09T01:35:42.317Z,91.40
2022-08-09T01:41:12.306Z,91.30
2022-08-09T01:46:24.553Z,91.50
2022-08-09T01:51:34.387Z,91.80
2022-08-09T01:56:41.219Z,92.10
2022-08-09T02:01:59.989Z,92.00
2022-08-09T02:07:15.569Z,92.00
2022-08-09T02:12:23.347Z,91.60
2022-08-09T02:18:00.042Z,91.50
2022-08-09T02:22:58.435Z,91.30
2022-08-09T02:28:09.558Z,91.40
2022-08-09T02:33:17.033Z,91.50
2022-08-09T02:38:28.889Z,91.80
2022-08-09T02:43:53.967Z,91.90
2022-08-09T02:49:02.798Z,92.30
2022-08-09T02:54:13.719Z,92.30
2022-08-09T02:59:26.354Z,92.40
2022-08-09T03:04:43.800Z,92.90
2022-08-09T03:09:56.241Z,93.10
2022-08-09T03:15:04.164Z,93.10
2022-08-09T03:20:13.628Z,93.00
2022-08-09T03:25:59.443Z,92.80
2022-08-09T03:30:43.398Z,93.00
2022-08-09T03:36:13.666Z,94.10
2022-08-09T03:41:15.358Z,94.70
2022-08-09T03:46:29.204Z,94.90
2022-08-09T03:51:55.814Z,94.40
2022-08-09T03:56:58.600Z,94.70
2022-08-09T04:02:02.064Z,95.00
2022-08-09T04:07:07.280Z,95.10
2022-08-09T04:12:49.726Z,95.10
2022-08-09T04:17:53.826Z,95.20
2022-08-09T04:23:02.286Z,95.20
2022-08-09T04:28:06.164Z,95.40
2022-08-09T04:33:09.472Z,95.50
2022-08-09T04:38:14.107Z,95.50
2022-08-09T04:43:18.504Z,95.80
2022-08-09T04:48:23.674Z,95.90
2022-08-09T05:07:19.060Z,96.00
2022-08-09T05:12:05.805Z,96.00
2022-08-09T05:17:15.246Z,95.90
2022-08-09T05:22:36.066Z,95.40
2022-08-09T05:27:59.605Z,95.80
2022-08-09T05:33:05.531Z,95.50
2022-08-09T05:38:12.914Z,94.50
2022-08-09T05:43:29.060Z,94.50
2022-08-09T05:48:36.732Z,93.00
2022-08-09T05:53:56.523Z,91.70
2022-08-09T05:59:03.097Z,92.00
2022-08-09T06:04:07.842Z,91.20
2022-08-09T06:09:40.603Z,90.30
2022-08-09T06:14:34.814Z,90.20
2022-08-09T06:19:41.637Z,89.60
2022-08-09T06:24:50.979Z,87.00
2022-08-09T06:30:04.261Z,86.50
2022-08-09T06:35:14.143Z,85.00
2022-08-09T06:40:23.924Z,84.30
2022-08-09T06:46:07.443Z,83.20
2022-08-09T06:50:54.413Z,80.00
2022-08-09T06:56:00.417Z,79.10
2022-08-09T07:01:03.427Z,77.00
2022-08-09T07:06:09.609Z,76.20
2022-08-09T07:11:17.615Z,75.60
2022-08-09T07:16:43.207Z,76.10
2022-08-09T07:21:57.133Z,73.90
2022-08-09T07:27:23.948Z,72.70
2022-08-09T07:32:32.632Z,73.80
2022-08-09T07:37:42.895Z,71.60
2022-08-09T07:42:54.271Z,71.30
2022-08-09T07:48:01.559Z,68.30
2022-08-09T07:53:11.309Z,68.40
2022-08-09T07:58:14.586Z,68.60
2022-08-09T08:03:17.912Z,66.80
2022-08-09T08:08:59.857Z,67.90
2022-08-09T08:13:56.803Z,66.30
2022-08-09T08:19:03.207Z,64.50
2022-08-09T08:24:16.635Z,65.80
2022-08-09T08:29:28.147Z,64.70
2022-08-09T08:34:33.693Z,62.00
2022-08-09T08:39:44.509Z,62.10
2022-08-09T08:44:47.750Z,63.60
2022-08-09T08:49:51.055Z,61.30
2022-08-09T08:55:03.675Z,58.70
2022-08-09T09:00:20.826Z,62.50
2022-08-09T09:05:58.152Z,59.20
2022-08-09T09:10:57.657Z,58.10
2022-08-09T09:16:00.942Z,56.50
2022-08-09T09:21:06.654Z,56.50
2022-08-09T09:26:14.438Z,58.30
2022-08-09T09:32:05.971Z,56.90
2022-08-09T09:36:55.601Z,54.40
2022-08-09T09:42:04.788Z,57.10
2022-08-09T09:47:15.436Z,57.00
2022-08-09T09:52:36.675Z,53.30
2022-08-09T09:58:00.619Z,54.90
2022-08-09T10:03:13.876Z,54.40
2022-08-09T10:08:27.818Z,53.50
2022-08-09T10:13:56.152Z,51.80
2022-08-09T10:19:04.355Z,51.90
2022-08-09T10:24:15.845Z,50.80
2022-08-09T10:29:59.330Z,50.60
2022-08-09T10:34:46.642Z,51.80
2022-08-09T10:39:54.324Z,48.20
2022-08-09T10:45:12.159Z,49.40
2022-08-09T10:50:31.198Z,50.20
2022-08-09T10:55:55.693Z,49.80
2022-08-09T11:03:14.481Z,49.70
2022-08-09T11:06:27.044Z,46.10
2022-08-09T11:12:12.170Z,47.10
2022-08-09T11:18:02.669Z,49.20
2022-08-09T11:23:15.499Z,46.50
2022-08-09T11:28:38.349Z,47.70
2022-08-09T11:33:50.358Z,46.90
2022-08-09T11:44:49.620Z,47.90
2022-08-09T11:50:56.287Z,46.60
2022-08-09T11:55:53.538Z,51.00
2022-08-09T12:01:03.552Z,45.40
2022-08-09T12:06:26.683Z,46.10
2022-08-09T12:12:03.336Z,45.60
2022-08-09T12:17:27.952Z,46.80
2022-08-09T12:22:33.003Z,46.50
2022-08-09T12:29:00.150Z,45.30
2022-08-09T12:33:08.406Z,45.00
2022-08-09T12:38:38.312Z,50.20
2022-08-09T12:44:06.841Z,46.70
2022-08-09T12:49:08.489Z,45.30
2022-08-09T12:54:12.035Z,47.90
2022-08-09T12:59:22.318Z,44.20
2022-08-09T13:04:37.694Z,46.40
2022-08-09T13:09:55.608Z,45.80
2022-08-09T13:15:20.630Z,45.80
2022-08-09T13:20:37.549Z,43.60
2022-08-09T13:25:56.132Z,43.40
2022-08-09T13:32:14.340Z,45.30
2022-08-09T13:36:41.159Z,42.70
2022-08-09T13:41:57.602Z,42.60
2022-08-09T13:47:26.425Z,44.00
2022-08-09T13:52:31.948Z,44.60
2022-08-09T13:57:39.573Z,42.90
2022-08-09T14:03:17.063Z,41.80
2022-08-09T14:08:13.226Z,43.40
2022-08-09T14:14:16.249Z,44.30
2022-08-09T14:19:03.695Z,42.20
2022-08-09T14:24:21.979Z,44.20
2022-08-09T14:30:36.360Z,44.50
2022-08-09T14:35:00.970Z,43.60
2022-08-09T14:40:05.218Z,45.40
2022-08-09T14:46:55.762Z,43.80
2022-08-09T14:50:54.978Z,42.60
2022-08-09T14:55:58.351Z,41.50
2022-08-09T15:01:02.391Z,42.80
2022-08-09T15:06:09.861Z,43.40
2022-08-09T15:11:20.110Z,43.90
2022-08-09T15:16:29.691Z,45.30
2022-08-09T15:21:56.703Z,43.30
2022-08-09T15:27:01.413Z,41.80
2022-08-09T15:32:05.813Z,42.20
2022-08-09T15:37:56.656Z,42.90
2022-08-09T15:43:08.206Z,42.60
2022-08-09T15:48:29.363Z,45.10
2022-08-09T15:54:05.507Z,42.10
2022-08-09T15:59:02.442Z,43.10
2022-08-09T16:04:06.530Z,42.30
2022-08-09T16:09:19.354Z,43.40
2022-08-09T16:14:43.104Z,43.30
2022-08-09T16:20:04.884Z,41.70
2022-08-09T16:25:16.092Z,42.70
2022-08-09T16:30:34.310Z,43.70
2022-08-09T16:35:56.635Z,43.10
2022-08-09T16:41:04.057Z,42.70
2022-08-09T16:46:07.849Z,43.00
2022-08-09T16:51:14.664Z,42.70
2022-08-09T16:56:25.289Z,42.90
2022-08-09T17:01:28.936Z,42.10
2022-08-09T17:08:41.526Z,42.20
2022-08-09T17:12:02.372Z,43.20
2022-08-09T17:17:23.367Z,43.30
2022-08-09T17:22:31.623Z,44.90
2022-08-09T17:27:38.448Z,43.90
2022-08-09T17:32:44.432Z,44.80
2022-08-09T17:38:11.244Z,44.70
2022-08-09T17:43:33.516Z,45.50
2022-08-09T17:48:39.373Z,44.00
2022-08-09T17:53:48.210Z,44.60
2022-08-09T17:58:57.933Z,46.20
2022-08-09T18:04:01.287Z,46.30
2022-08-09T18:09:06.385Z,48.30
2022-08-09T18:14:14.786Z,49.10
2022-08-09T18:20:53.884Z,50.90
2022-08-09T18:24:42.954Z,51.20
2022-08-09T18:30:39.813Z,51.60
2022-08-09T18:35:13.871Z,52.50
2022-08-09T18:40:27.106Z,52.00
2022-08-09T18:46:46.424Z,52.60
2022-08-09T18:50:59.134Z,52.80
2022-08-09T18:56:05.476Z,53.80
2022-08-09T19:01:11.211Z,53.80
2022-08-09T19:06:15.348Z,54.10
2022-08-09T19:11:18.515Z,55.10
2022-08-09T19:16:36.524Z,55.30
2022-08-09T19:21:52.349Z,55.30
2022-08-09T19:27:05.150Z,55.60
2022-08-09T19:32:09.833Z,55.90
2022-08-09T19:37:17.041Z,56.50
2022-08-09T19:42:20.799Z,57.00
2022-08-09T19:47:33.075Z,57.60
2022-08-09T19:52:49.681Z,57.80
2022-08-09T19:57:56.856Z,58.60
2022-08-09T20:04:08.401Z,59.00
2022-08-09T20:08:34.975Z,59.20
2022-08-09T20:13:39.612Z,59.50
2022-08-09T20:19:03.715Z,59.80
2022-08-09T20:24:11.091Z,60.70
2022-08-09T20:29:22.972Z,61.30
2022-08-09T20:34:29.021Z,62.50
2022-08-09T20:40:16.632Z,62.40
2022-08-09T20:45:56.886Z,62.40
2022-08-09T20:50:47.642Z,63.20
2022-08-09T20:56:02.583Z,63.10
2022-08-09T21:01:35.377Z,63.50
2022-08-09T21:06:46.788Z,64.00
2022-08-09T21:18:21.861Z,64.60
2022-08-09T21:22:41.144Z,64.80
2022-08-09T21:28:00.419Z,64.80
2022-08-09T21:33:05.978Z,65.90
2022-08-09T21:38:13.663Z,66.90
2022-08-09T21:43:56.784Z,67.50
2022-08-09T21:48:49.691Z,68.10
2022-08-09T21:53:58.573Z,69.10
2022-08-09T21:59:08.275Z,69.70
2022-08-09T22:04:11.161Z,70.20
2022-08-09T22:09:19.568Z,70.40
2022-08-09T22:14:24.573Z,70.60
2022-08-09T22:19:58.333Z,71.50
2022-08-09T22:26:05.281Z,71.90
2022-08-09T22:30:25.990Z,72.10
2022-08-09T22:36:00.681Z,72.10
2022-08-09T22:41:05.664Z,72.10
2022-08-09T22:48:14.132Z,72.30
2022-08-09T22:51:34.015Z,71.50
2022-08-09T22:56:43.428Z,71.20
2022-08-09T23:01:52.709Z,70.80
2022-08-09T23:07:13.961Z,70.60
2022-08-09T23:12:21.381Z,70.30
2022-08-09T23:17:25.428Z,70.70
2022-08-09T23:22:29.111Z,71.10
2022-08-09T23:27:34.174Z,70.70
2022-08-09T23:32:37.907Z,72.00
2022-08-09T23:37:42.086Z,71.70
2022-08-09T23:42:49.155Z,72.60
2022-08-09T23:47:53.884Z,72.80
2022-08-09T23:53:00.077Z,73.30
2022-08-09T23:58:25.838Z,73.20
